Terminal Aerodrome Forecast
Issued by NWS

Home | Current Version | Previous Version | Text Only | Print | Product List | Glossary On
Versions: 1 2 3 4 5 6 7 8 9 10 11 12 13 14 15 16 17 18 19 20 21 22 23 24
000
FTUS44 KLUB 060109 AAA
TAFCDS
TAF AMD
KCDS 060109Z 0601/0624 10009KT P6SM OVC015
      TEMPO 0602/0604 3SM TSRA OVC010CB
     FM060600 17013KT P6SM SCT020 BKN150
     FM061000 17016KT P6SM OVC015
     FM062000 18020G27KT P6SM SCT025 BKN100=

USA.gov is the U.S. government's official web portal to all federal, state and local government web resources and services.